createdAt,value
2023-01-28T00:00:23.527Z,46.33
2023-01-28T00:00:55.611Z,45.40
2023-01-28T00:01:27.754Z,46.33
2023-01-28T00:01:59.451Z,45.73
2023-01-28T00:02:31.874Z,46.17
2023-01-28T00:03:03.567Z,48.90
2023-01-28T00:03:35.604Z,47.33
2023-01-28T00:04:07.298Z,48.03
2023-01-28T00:04:39.966Z,46.17
2023-01-28T00:05:12.216Z,46.83
2023-01-28T00:05:44.434Z,45.40
2023-01-28T00:06:16.103Z,46.37
2023-01-28T00:06:47.745Z,47.57
2023-01-28T00:07:19.374Z,48.77
2023-01-28T00:07:52.199Z,48.03
2023-01-28T00:08:23.861Z,48.90
2023-01-28T00:09:03.434Z,48.67
2023-01-28T00:09:35.064Z,47.13
2023-01-28T00:10:07.192Z,46.60
2023-01-28T00:10:39.772Z,45.90
2023-01-28T00:11:13.492Z,46.87
2023-01-28T00:11:45.253Z,46.50
2023-01-28T00:12:17.789Z,47.13
2023-01-28T00:12:52.784Z,46.10
2023-01-28T00:13:24.402Z,45.83
2023-01-28T00:13:57.733Z,45.37
2023-01-28T00:14:29.724Z,45.43
2023-01-28T00:15:03.303Z,46.27
2023-01-28T00:15:34.948Z,45.57
2023-01-28T00:16:08.999Z,45.83
2023-01-28T00:16:40.692Z,48.33
2023-01-28T00:17:12.707Z,47.50
2023-01-28T00:17:44.431Z,48.40
2023-01-28T00:18:16.108Z,48.93
2023-01-28T00:18:47.810Z,48.73
2023-01-28T00:19:19.448Z,46.33
2023-01-28T00:19:51.097Z,46.10
2023-01-28T00:20:25.694Z,48.27
2023-01-28T00:21:26.598Z,49.07
2023-01-28T00:21:58.257Z,47.80
2023-01-28T00:22:29.887Z,45.77
2023-01-28T00:23:01.753Z,45.87
2023-01-28T00:23:36.593Z,47.17
2023-01-28T00:24:09.670Z,48.07
2023-01-28T00:24:41.404Z,48.80
2023-01-28T00:25:13.466Z,49.77
2023-01-28T00:25:45.291Z,47.77
2023-01-28T00:26:16.924Z,47.63
2023-01-28T00:26:48.566Z,45.93
2023-01-28T00:27:22.852Z,46.73
2023-01-28T00:27:54.488Z,49.93
2023-01-28T00:28:26.259Z,50.53
2023-01-28T00:28:57.929Z,50.93
2023-01-28T00:29:31.967Z,49.90
2023-01-28T00:30:03.923Z,49.30
2023-01-28T00:30:40.642Z,49.13
2023-01-28T00:31:26.204Z,50.17
2023-01-28T00:31:57.995Z,49.53
2023-01-28T00:32:29.702Z,50.43
2023-01-28T00:33:01.335Z,49.97
2023-01-28T00:33:33.164Z,50.57
2023-01-28T00:34:04.900Z,50.03
2023-01-28T00:34:36.620Z,52.60
2023-01-28T00:35:08.649Z,52.50
2023-01-28T00:35:40.276Z,52.33
2023-01-28T00:36:13.456Z,53.70
2023-01-28T00:36:45.299Z,51.70
2023-01-28T00:37:16.976Z,53.07
2023-01-28T00:37:50.831Z,52.73
2023-01-28T00:38:22.471Z,51.80
2023-01-28T00:39:01.739Z,50.13
2023-01-28T00:39:33.492Z,52.37
2023-01-28T00:40:05.511Z,53.27
2023-01-28T00:40:39.428Z,53.80
2023-01-28T00:41:16.676Z,53.23
2023-01-28T00:41:48.712Z,54.67
2023-01-28T00:42:21.966Z,52.10
2023-01-28T00:42:54.303Z,52.90
2023-01-28T00:43:25.936Z,54.23
2023-01-28T00:43:58.600Z,53.70
2023-01-28T00:44:30.265Z,54.80
2023-01-28T00:45:01.889Z,54.43
2023-01-28T00:45:33.566Z,51.57
2023-01-28T00:46:09.918Z,53.63
2023-01-28T00:46:44.382Z,51.53
2023-01-28T00:47:17.994Z,53.83
2023-01-28T00:47:49.683Z,54.60
2023-01-28T00:48:24.412Z,54.20
2023-01-28T00:48:56.189Z,54.03
2023-01-28T00:49:27.853Z,54.17
2023-01-28T00:49:59.484Z,53.10
2023-01-28T00:50:31.093Z,53.13
2023-01-28T00:51:03.576Z,53.13
2023-01-28T00:51:35.332Z,52.23
2023-01-28T00:52:06.988Z,53.47
2023-01-28T00:52:38.615Z,52.27
2023-01-28T00:53:10.230Z,52.47
2023-01-28T00:53:42.133Z,53.03
2023-01-28T00:54:14.610Z,53.77
2023-01-28T00:54:46.273Z,51.17
2023-01-28T00:55:18.130Z,52.60
2023-01-28T00:55:49.776Z,52.80
2023-01-28T00:56:21.457Z,51.90
2023-01-28T00:56:53.631Z,52.43
2023-01-28T00:57:25.255Z,54.73
2023-01-28T00:57:56.947Z,53.93
2023-01-28T00:58:28.798Z,53.47
2023-01-28T00:59:02.456Z,52.80
2023-01-28T00:59:34.088Z,53.00
2023-01-28T01:00:14.018Z,52.53
2023-01-28T01:00:46.143Z,56.30
2023-01-28T01:01:21.708Z,54.07
2023-01-28T01:01:53.399Z,51.73
2023-01-28T01:02:27.318Z,51.23
2023-01-28T01:03:00.893Z,51.13
2023-01-28T01:03:32.547Z,52.83
2023-01-28T01:04:06.802Z,51.50
2023-01-28T01:04:47.863Z,53.30
2023-01-28T01:05:19.528Z,51.87
2023-01-28T01:05:51.177Z,51.93
2023-01-28T01:06:23.833Z,51.23
2023-01-28T01:06:55.522Z,51.63
2023-01-28T01:07:34.802Z,50.70
2023-01-28T01:08:09.190Z,50.30
2023-01-28T01:08:43.024Z,50.53
2023-01-28T01:09:14.760Z,52.07
2023-01-28T01:09:49.256Z,54.47
2023-01-28T01:10:23.731Z,53.13
2023-01-28T01:10:59.181Z,50.53
2023-01-28T01:11:30.999Z,50.63
2023-01-28T01:12:03.931Z,50.23
2023-01-28T01:12:35.728Z,50.23
2023-01-28T01:13:08.313Z,50.80
2023-01-28T01:13:40.055Z,50.73
2023-01-28T01:14:11.721Z,51.87
2023-01-28T01:14:50.785Z,51.10
2023-01-28T01:15:22.485Z,50.03
2023-01-28T01:16:03.087Z,51.10
2023-01-28T01:16:36.253Z,51.90
2023-01-28T01:17:07.932Z,51.87
2023-01-28T01:17:45.362Z,49.70
2023-01-28T01:18:22.310Z,48.13
2023-01-28T01:18:55.123Z,50.13
2023-01-28T01:19:31.035Z,50.37
2023-01-28T01:20:03.379Z,52.00
2023-01-28T01:20:42.204Z,51.77
2023-01-28T01:21:17.629Z,51.13
2023-01-28T01:21:50.779Z,50.57
2023-01-28T01:22:22.923Z,48.77
2023-01-28T01:22:59.011Z,49.20
2023-01-28T01:23:31.452Z,50.47
2023-01-28T01:24:03.198Z,49.17
2023-01-28T01:24:34.902Z,48.90
2023-01-28T01:25:07.444Z,50.00
2023-01-28T01:25:40.151Z,48.30
2023-01-28T01:26:14.287Z,48.73
2023-01-28T01:26:45.963Z,49.37
2023-01-28T01:27:17.621Z,50.23
2023-01-28T01:27:51.011Z,48.73
2023-01-28T01:28:25.039Z,48.93
2023-01-28T01:28:56.724Z,48.87
2023-01-28T01:29:28.919Z,50.40
2023-01-28T01:30:02.743Z,48.53
2023-01-28T01:30:34.378Z,47.10
2023-01-28T01:31:12.751Z,47.83
2023-01-28T01:31:45.237Z,50.47
2023-01-28T01:32:18.744Z,50.03
2023-01-28T01:32:50.391Z,48.17
2023-01-28T01:33:23.661Z,49.83
2023-01-28T01:33:55.375Z,50.83
2023-01-28T01:34:26.990Z,52.03
2023-01-28T01:34:58.903Z,52.03
2023-01-28T01:35:30.700Z,52.30
2023-01-28T01:36:02.906Z,50.27
2023-01-28T01:36:34.597Z,51.27
2023-01-28T01:37:08.477Z,52.47
2023-01-28T01:37:42.757Z,50.83
2023-01-28T01:38:14.412Z,52.90
2023-01-28T01:38:47.707Z,53.63
2023-01-28T01:39:19.399Z,55.37
2023-01-28T01:39:51.082Z,56.13
2023-01-28T01:40:22.739Z,56.03
2023-01-28T01:41:01.395Z,56.70
2023-01-28T01:41:33.281Z,58.00
2023-01-28T01:42:04.967Z,59.47
2023-01-28T01:42:36.733Z,60.03
2023-01-28T01:43:17.234Z,55.37
2023-01-28T01:43:58.447Z,55.10
2023-01-28T01:45:01.663Z,55.47
2023-01-28T01:45:35.338Z,56.93
2023-01-28T01:46:07.071Z,58.90
2023-01-28T01:46:45.670Z,57.97
2023-01-28T01:47:21.878Z,57.17
2023-01-28T01:48:06.052Z,56.87
2023-01-28T01:48:37.872Z,57.37
2023-01-28T01:49:18.254Z,57.40
2023-01-28T01:49:50.322Z,55.63
2023-01-28T01:50:27.801Z,56.60
2023-01-28T01:51:11.094Z,58.17
2023-01-28T01:51:46.372Z,57.70
2023-01-28T01:52:25.217Z,57.57
2023-01-28T01:53:02.856Z,55.83
2023-01-28T01:53:39.688Z,56.70
2023-01-28T01:54:11.580Z,58.27
2023-01-28T01:54:50.672Z,59.53
2023-01-28T01:55:27.535Z,57.47
2023-01-28T01:56:05.099Z,55.97
2023-01-28T01:56:42.560Z,60.17
2023-01-28T01:57:20.912Z,57.73
2023-01-28T01:57:56.743Z,56.80
2023-01-28T01:58:35.654Z,57.80
2023-01-28T01:59:12.982Z,57.63
2023-01-28T01:59:45.000Z,59.73
2023-01-28T02:00:19.764Z,58.73
2023-01-28T02:00:51.595Z,62.30
2023-01-28T02:01:28.076Z,61.87
2023-01-28T02:02:07.787Z,60.37
2023-01-28T02:02:47.407Z,61.10
2023-01-28T02:03:29.220Z,58.00
2023-01-28T02:04:12.279Z,60.83
2023-01-28T02:04:45.114Z,59.27
2023-01-28T02:05:20.482Z,59.03
2023-01-28T02:05:52.254Z,58.77
2023-01-28T02:06:24.629Z,58.83
2023-01-28T02:07:03.930Z,60.80
2023-01-28T02:07:37.640Z,57.70
2023-01-28T02:08:24.138Z,58.60
2023-01-28T02:09:00.587Z,60.57
2023-01-28T02:09:38.526Z,60.13
2023-01-28T02:10:12.248Z,59.50
2023-01-28T02:10:45.639Z,61.60
2023-01-28T02:11:18.464Z,64.53
2023-01-28T02:11:54.523Z,61.70
2023-01-28T02:12:37.813Z,61.60
2023-01-28T02:13:09.736Z,59.77
2023-01-28T02:13:52.236Z,59.83
2023-01-28T02:14:31.413Z,57.50
2023-01-28T02:15:10.107Z,57.47
2023-01-28T02:15:44.458Z,60.40
2023-01-28T02:16:19.082Z,59.87
2023-01-28T02:16:50.966Z,59.57
2023-01-28T02:17:23.624Z,61.73
2023-01-28T02:17:57.015Z,60.10
2023-01-28T02:18:31.402Z,61.87
2023-01-28T02:19:03.530Z,60.60
2023-01-28T02:19:44.283Z,60.77
2023-01-28T02:20:47.862Z,59.70
2023-01-28T02:21:35.001Z,60.07
2023-01-28T02:22:21.612Z,60.00
2023-01-28T02:23:14.356Z,58.07
2023-01-28T02:24:08.805Z,61.43
2023-01-28T02:24:55.601Z,58.20
2023-01-28T02:26:06.635Z,62.27
2023-01-28T02:26:57.830Z,63.10
2023-01-28T02:27:48.160Z,61.93
2023-01-28T02:28:47.699Z,63.10
2023-01-28T02:29:57.174Z,58.90
2023-01-28T02:30:35.501Z,61.90
2023-01-28T02:31:15.063Z,60.47
2023-01-28T02:32:03.604Z,62.23
2023-01-28T02:32:50.606Z,60.73
2023-01-28T02:33:54.643Z,59.63
2023-01-28T02:34:41.358Z,62.47
2023-01-28T02:35:29.794Z,62.07
2023-01-28T02:36:24.195Z,61.17
2023-01-28T02:37:04.815Z,63.40
2023-01-28T02:37:50.483Z,62.07
2023-01-28T02:38:33.463Z,61.77
2023-01-28T02:39:32.374Z,61.93
2023-01-28T02:40:17.408Z,61.20
2023-01-28T02:41:03.148Z,59.97
2023-01-28T02:41:42.856Z,61.57
2023-01-28T02:42:29.128Z,61.87
2023-01-28T02:43:00.859Z,60.77
2023-01-28T02:43:45.974Z,62.73
2023-01-28T02:44:18.297Z,58.20
2023-01-28T02:44:52.344Z,60.47
2023-01-28T02:45:52.872Z,57.77
2023-01-28T02:46:45.920Z,59.57
2023-01-28T02:47:36.238Z,60.50
2023-01-28T02:48:07.898Z,57.97
2023-01-28T02:48:39.555Z,58.67
2023-01-28T02:49:22.902Z,60.33
2023-01-28T02:49:58.615Z,60.03
2023-01-28T02:50:42.572Z,60.93
2023-01-28T02:51:34.797Z,58.97
2023-01-28T02:52:15.442Z,63.20
2023-01-28T02:53:31.549Z,61.40
2023-01-28T02:54:28.446Z,61.83
2023-01-28T02:55:30.657Z,60.37
2023-01-28T02:56:21.084Z,61.70
2023-01-28T02:56:55.357Z,62.10
2023-01-28T02:57:47.832Z,61.83
2023-01-28T02:58:33.719Z,61.30
2023-01-28T02:59:47.466Z,62.17
2023-01-28T03:00:46.354Z,64.97
2023-01-28T03:01:26.174Z,62.57
2023-01-28T03:02:20.439Z,62.70
2023-01-28T03:03:07.287Z,61.47
2023-01-28T03:04:02.934Z,60.80
2023-01-28T03:05:06.049Z,61.33
2023-01-28T03:06:03.345Z,62.67
2023-01-28T03:06:43.898Z,62.07
2023-01-28T03:07:18.878Z,62.90
2023-01-28T03:07:52.123Z,66.33
2023-01-28T03:08:43.004Z,73.20
2023-01-28T03:09:23.716Z,79.30
2023-01-28T03:10:00.628Z,86.77
2023-01-28T03:10:35.234Z,98.10
2023-01-28T03:11:25.490Z,104.90
2023-01-28T03:12:34.313Z,103.50
2023-01-28T03:13:26.593Z,105.17
2023-01-28T03:14:16.757Z,90.17
2023-01-28T03:15:18.712Z,80.83
2023-01-28T03:16:09.370Z,79.07
2023-01-28T03:17:00.900Z,73.33
2023-01-28T03:18:17.108Z,69.13
2023-01-28T03:19:13.921Z,71.23
2023-01-28T03:20:05.364Z,71.67
2023-01-28T03:21:13.240Z,71.93
2023-01-28T03:22:05.889Z,69.83
2023-01-28T03:23:02.263Z,67.63
2023-01-28T03:24:19.692Z,67.03
2023-01-28T03:25:12.376Z,65.73
2023-01-28T03:26:07.388Z,65.97
2023-01-28T03:27:29.680Z,61.43
2023-01-28T03:28:24.421Z,66.27
2023-01-28T03:29:23.167Z,61.77
2023-01-28T03:30:19.584Z,61.50
2023-01-28T03:31:15.030Z,62.77
2023-01-28T03:32:05.401Z,68.20
2023-01-28T03:32:58.687Z,69.63
2023-01-28T03:33:51.418Z,65.40
2023-01-28T03:34:42.101Z,67.20
2023-01-28T03:35:37.057Z,65.63
2023-01-28T03:36:31.413Z,68.13
2023-01-28T03:37:04.386Z,64.07
2023-01-28T03:37:36.225Z,64.80
2023-01-28T03:38:22.941Z,65.60
2023-01-28T03:38:54.784Z,63.73
2023-01-28T03:39:29.242Z,62.10
2023-01-28T03:40:07.993Z,62.70
2023-01-28T03:40:51.771Z,63.67
2023-01-28T03:41:26.017Z,61.47
2023-01-28T03:42:02.171Z,63.50
2023-01-28T03:42:33.947Z,64.50
2023-01-28T03:43:05.589Z,63.27
2023-01-28T03:43:37.634Z,61.07
2023-01-28T03:44:28.024Z,61.60
2023-01-28T03:45:01.791Z,66.07
2023-01-28T03:45:33.438Z,66.03
2023-01-28T03:46:06.464Z,63.23
2023-01-28T03:46:39.552Z,61.57
2023-01-28T03:47:12.169Z,63.13
2023-01-28T03:47:46.759Z,63.20
2023-01-28T03:48:24.056Z,62.83
2023-01-28T03:48:55.718Z,63.43
2023-01-28T03:49:27.417Z,59.33
2023-01-28T03:50:00.373Z,60.23
2023-01-28T03:50:34.885Z,62.27
2023-01-28T03:51:06.527Z,61.93
2023-01-28T03:51:38.208Z,61.37
2023-01-28T03:52:09.908Z,59.97
2023-01-28T03:52:41.532Z,61.03
2023-01-28T03:53:16.439Z,59.47
2023-01-28T03:53:48.350Z,59.57
2023-01-28T03:54:19.984Z,60.17
2023-01-28T03:54:55.076Z,59.17
2023-01-28T03:55:26.755Z,60.17
2023-01-28T03:55:58.545Z,59.70
2023-01-28T03:56:40.102Z,59.03
2023-01-28T03:57:11.767Z,60.10
2023-01-28T03:57:44.970Z,59.30
2023-01-28T03:58:18.487Z,57.40
2023-01-28T03:58:59.571Z,58.37
2023-01-28T03:59:31.257Z,59.37
2023-01-28T04:00:03.063Z,58.10
2023-01-28T04:00:42.016Z,62.33
2023-01-28T04:01:14.252Z,62.50
2023-01-28T04:01:46.052Z,60.37
2023-01-28T04:02:21.978Z,60.37
2023-01-28T04:02:53.743Z,60.20
2023-01-28T04:03:26.662Z,61.57
2023-01-28T04:03:59.099Z,61.07
2023-01-28T04:04:35.150Z,59.07
2023-01-28T04:05:13.959Z,58.90
2023-01-28T04:05:57.698Z,61.67
2023-01-28T04:06:29.371Z,62.10
2023-01-28T04:07:01.073Z,58.93
2023-01-28T04:07:33.712Z,63.47
2023-01-28T04:08:05.413Z,64.33
2023-01-28T04:08:39.540Z,60.47
2023-01-28T04:09:11.214Z,60.80
2023-01-28T04:09:44.705Z,61.40
2023-01-28T04:10:18.519Z,59.93
2023-01-28T04:10:57.520Z,59.73
2023-01-28T04:11:29.204Z,59.27
2023-01-28T04:12:00.849Z,59.30
2023-01-28T04:12:32.480Z,59.17
2023-01-28T04:13:04.181Z,61.47
2023-01-28T04:13:35.854Z,63.50
2023-01-28T04:14:07.489Z,62.87
2023-01-28T04:14:40.280Z,60.33
2023-01-28T04:15:19.222Z,57.97
2023-01-28T04:15:53.950Z,62.27
2023-01-28T04:16:25.625Z,60.37
2023-01-28T04:16:57.683Z,59.13
2023-01-28T04:17:29.297Z,62.17
2023-01-28T04:18:01.001Z,61.87
2023-01-28T04:18:35.034Z,61.40
2023-01-28T04:19:06.688Z,61.63
2023-01-28T04:19:38.663Z,60.60
2023-01-28T04:20:11.090Z,57.70
2023-01-28T04:20:42.741Z,58.30
2023-01-28T04:21:14.827Z,59.50
2023-01-28T04:21:48.991Z,58.13
2023-01-28T04:22:20.631Z,57.83
2023-01-28T04:22:52.546Z,60.73
2023-01-28T04:23:24.242Z,61.60
2023-01-28T04:23:56.439Z,61.47
2023-01-28T04:24:29.923Z,62.77
2023-01-28T04:25:04.636Z,61.70
2023-01-28T04:25:36.303Z,62.13
2023-01-28T04:26:08.539Z,59.67
2023-01-28T04:26:40.280Z,58.80
2023-01-28T04:27:11.916Z,59.57
2023-01-28T04:27:43.607Z,61.13
2023-01-28T04:28:15.262Z,63.43
2023-01-28T04:28:47.016Z,60.27
2023-01-28T04:29:25.779Z,59.67
2023-01-28T04:29:57.480Z,59.30
2023-01-28T04:30:29.217Z,61.97
2023-01-28T04:31:06.102Z,63.97
2023-01-28T04:31:37.827Z,62.83
2023-01-28T04:32:11.532Z,61.10
2023-01-28T04:32:43.430Z,61.10
2023-01-28T04:33:15.400Z,60.97
2023-01-28T04:33:49.448Z,63.47
2023-01-28T04:34:21.074Z,62.23
2023-01-28T04:34:52.705Z,62.57
2023-01-28T04:35:26.379Z,61.97
2023-01-28T04:35:58.018Z,62.37
2023-01-28T04:36:29.707Z,60.70
2023-01-28T04:37:01.367Z,61.43
2023-01-28T04:37:33.011Z,64.60
2023-01-28T04:38:04.666Z,67.43
2023-01-28T04:38:39.204Z,68.90
2023-01-28T04:39:10.848Z,66.77
2023-01-28T04:39:42.534Z,63.93
2023-01-28T04:40:14.263Z,63.50
2023-01-28T04:40:49.797Z,62.63
2023-01-28T04:41:21.519Z,62.30
2023-01-28T04:41:53.158Z,63.53
2023-01-28T04:42:24.856Z,63.57
2023-01-28T04:42:57.579Z,65.80
2023-01-28T04:43:29.267Z,66.73
2023-01-28T04:44:00.997Z,65.53
2023-01-28T04:44:32.651Z,63.63
2023-01-28T04:45:05.130Z,65.10
2023-01-28T04:45:36.798Z,68.97
2023-01-28T04:46:08.537Z,68.73
2023-01-28T04:46:41.898Z,66.03
2023-01-28T04:47:15.957Z,63.73
2023-01-28T04:47:47.587Z,62.13
2023-01-28T04:48:21.703Z,60.47
2023-01-28T04:48:55.655Z,63.33
2023-01-28T04:49:27.318Z,63.50
2023-01-28T04:49:58.991Z,62.00
2023-01-28T04:50:32.250Z,60.53
2023-01-28T04:51:04.645Z,59.87
2023-01-28T04:51:36.363Z,60.60
2023-01-28T04:52:08.030Z,62.57
2023-01-28T04:52:39.793Z,62.43
2023-01-28T04:53:12.152Z,64.03
2023-01-28T04:53:43.776Z,64.33
2023-01-28T04:54:17.347Z,65.13
2023-01-28T04:54:48.998Z,63.23
2023-01-28T04:55:22.958Z,60.50
2023-01-28T04:55:56.751Z,61.37
2023-01-28T04:56:30.598Z,58.17
2023-01-28T04:57:02.332Z,57.17
2023-01-28T04:57:36.283Z,59.83
2023-01-28T04:58:15.601Z,60.47
2023-01-28T04:58:47.272Z,63.03
2023-01-28T04:59:19.972Z,63.20
2023-01-28T04:59:51.704Z,63.47
2023-01-28T05:00:26.030Z,65.00
2023-01-28T05:00:59.992Z,61.07
2023-01-28T05:01:31.634Z,58.03
2023-01-28T05:02:03.438Z,59.23
2023-01-28T05:02:35.117Z,60.33
2023-01-28T05:03:09.121Z,62.43
2023-01-28T05:03:42.845Z,66.07
2023-01-28T05:04:16.501Z,66.00
2023-01-28T05:04:48.123Z,61.50
2023-01-28T05:05:19.966Z,58.47
2023-01-28T05:05:52.051Z,57.57
2023-01-28T05:06:23.717Z,56.90
2023-01-28T05:06:55.434Z,58.00
2023-01-28T05:07:27.215Z,57.10
2023-01-28T05:07:59.616Z,58.00
2023-01-28T05:08:31.328Z,58.60
2023-01-28T05:09:05.001Z,57.97
2023-01-28T05:09:36.966Z,59.17
2023-01-28T05:10:09.134Z,60.03
2023-01-28T05:10:40.769Z,59.43
2023-01-28T05:11:15.556Z,59.67
2023-01-28T05:11:47.795Z,60.20
2023-01-28T05:12:20.893Z,59.77
2023-01-28T05:12:54.986Z,58.57
2023-01-28T05:13:26.652Z,56.67
2023-01-28T05:13:58.322Z,58.77
2023-01-28T05:14:29.950Z,59.87
2023-01-28T05:15:01.790Z,59.23
2023-01-28T05:15:33.445Z,56.83
2023-01-28T05:16:06.094Z,58.10
2023-01-28T05:16:37.817Z,59.30
2023-01-28T05:17:09.601Z,58.87
2023-01-28T05:17:42.870Z,58.90
2023-01-28T05:18:14.533Z,58.93
2023-01-28T05:18:48.111Z,59.23
2023-01-28T05:19:20.084Z,59.57
2023-01-28T05:19:53.793Z,58.23
2023-01-28T05:20:25.681Z,57.43
2023-01-28T05:20:57.383Z,60.13
2023-01-28T05:21:29.111Z,58.47
2023-01-28T05:22:00.767Z,57.20
2023-01-28T05:22:32.662Z,56.70
2023-01-28T05:23:05.606Z,58.30
2023-01-28T05:23:37.238Z,59.13
2023-01-28T05:24:09.048Z,59.47
2023-01-28T05:24:44.190Z,59.57
2023-01-28T05:25:16.149Z,59.57
2023-01-28T05:25:48.480Z,59.67
2023-01-28T05:26:20.697Z,58.43
2023-01-28T05:26:52.331Z,59.17
2023-01-28T05:27:24.066Z,61.87
2023-01-28T05:27:55.749Z,64.57
2023-01-28T05:28:27.402Z,61.43
2023-01-28T05:28:59.085Z,61.70
2023-01-28T05:29:33.129Z,62.23
2023-01-28T05:30:06.682Z,60.73
2023-01-28T05:30:41.568Z,58.70
2023-01-28T05:31:13.227Z,58.30
2023-01-28T05:31:44.854Z,59.53
2023-01-28T05:32:19.131Z,57.80
2023-01-28T05:32:57.207Z,59.07
2023-01-28T05:33:37.461Z,59.67
2023-01-28T05:34:09.073Z,61.03
2023-01-28T05:34:40.754Z,63.60
2023-01-28T05:35:12.429Z,62.23
2023-01-28T05:35:44.552Z,58.17
2023-01-28T05:36:16.187Z,57.97
2023-01-28T05:36:47.830Z,58.13
2023-01-28T05:37:21.454Z,56.03
2023-01-28T05:37:53.125Z,55.10
2023-01-28T05:38:24.842Z,55.47
2023-01-28T05:38:56.516Z,56.50
2023-01-28T05:39:28.189Z,58.03
2023-01-28T05:39:59.873Z,61.13
2023-01-28T05:40:34.406Z,59.63
2023-01-28T05:41:06.082Z,57.13
2023-01-28T05:41:37.690Z,56.53
2023-01-28T05:42:09.579Z,55.77
2023-01-28T05:42:41.234Z,55.40
2023-01-28T05:43:12.881Z,54.97
2023-01-28T05:43:49.533Z,56.57
2023-01-28T05:44:21.194Z,57.63
2023-01-28T05:44:52.854Z,56.60
2023-01-28T05:45:24.631Z,55.73
2023-01-28T05:45:56.301Z,57.37
2023-01-28T05:46:27.992Z,57.70
2023-01-28T05:46:59.688Z,55.97
2023-01-28T05:47:31.309Z,56.83
2023-01-28T05:48:03.016Z,56.17
2023-01-28T05:48:34.744Z,55.93
2023-01-28T05:49:11.132Z,54.57
2023-01-28T05:49:42.785Z,57.27
2023-01-28T05:50:17.627Z,55.33
2023-01-28T05:50:49.480Z,53.93
2023-01-28T05:51:21.156Z,53.53
2023-01-28T05:51:53.112Z,52.70
2023-01-28T05:52:24.782Z,56.50
2023-01-28T05:52:56.432Z,59.53
2023-01-28T05:53:28.088Z,55.70
2023-01-28T05:53:59.727Z,54.83
2023-01-28T05:54:31.364Z,55.07
2023-01-28T05:55:03.137Z,54.30
2023-01-28T05:55:35.438Z,56.30
2023-01-28T05:56:07.660Z,55.50
2023-01-28T05:56:40.350Z,55.53
2023-01-28T05:57:12.032Z,57.37
2023-01-28T05:57:51.886Z,58.53
2023-01-28T05:58:23.584Z,57.37
2023-01-28T05:58:55.235Z,56.77
2023-01-28T05:59:26.946Z,56.90
2023-01-28T05:59:59.792Z,56.43
2023-01-28T06:00:31.431Z,57.17
2023-01-28T06:01:03.144Z,55.43
2023-01-28T06:01:35.960Z,53.70
2023-01-28T06:02:07.609Z,54.00
2023-01-28T06:02:40.758Z,53.50
2023-01-28T06:03:12.730Z,56.57
2023-01-28T06:03:44.360Z,57.30
2023-01-28T06:04:18.876Z,57.30
2023-01-28T06:04:50.502Z,57.97
2023-01-28T06:05:25.056Z,56.80
2023-01-28T06:05:56.826Z,55.97
2023-01-28T06:06:30.898Z,56.77
2023-01-28T06:07:05.117Z,52.73
2023-01-28T06:07:36.768Z,53.17
2023-01-28T06:08:08.838Z,54.13
2023-01-28T06:08:42.889Z,51.93
2023-01-28T06:09:17.053Z,52.97
2023-01-28T06:09:50.929Z,55.00
2023-01-28T06:10:22.671Z,54.70
2023-01-28T06:10:54.326Z,56.23
2023-01-28T06:11:25.979Z,58.37
2023-01-28T06:11:57.636Z,58.40
2023-01-28T06:12:29.242Z,56.87
2023-01-28T06:13:00.962Z,53.50
2023-01-28T06:13:32.708Z,54.70
2023-01-28T06:14:07.160Z,52.13
2023-01-28T06:14:38.797Z,53.30
2023-01-28T06:15:11.056Z,53.47
2023-01-28T06:15:42.761Z,52.33
2023-01-28T06:16:14.486Z,52.37
2023-01-28T06:16:47.514Z,52.90
2023-01-28T06:17:19.165Z,51.40
2023-01-28T06:17:50.825Z,52.43
2023-01-28T06:18:22.478Z,52.43
2023-01-28T06:18:54.130Z,52.17
2023-01-28T06:19:27.831Z,53.20
2023-01-28T06:20:02.056Z,53.43
2023-01-28T06:20:33.887Z,52.10
2023-01-28T06:21:05.688Z,53.00
2023-01-28T06:21:37.430Z,51.80
2023-01-28T06:22:09.139Z,53.93
2023-01-28T06:22:42.964Z,52.03
2023-01-28T06:23:14.744Z,52.23
2023-01-28T06:23:46.416Z,52.77
2023-01-28T06:24:18.111Z,51.33
2023-01-28T06:24:52.699Z,51.00
2023-01-28T06:25:24.343Z,50.17
2023-01-28T06:25:57.179Z,50.57
2023-01-28T06:26:31.412Z,52.43
2023-01-28T06:27:03.048Z,52.27
2023-01-28T06:27:34.839Z,53.67
2023-01-28T06:28:06.502Z,55.13
2023-01-28T06:28:38.152Z,53.57
2023-01-28T06:29:09.831Z,54.03
2023-01-28T06:29:43.320Z,53.23
2023-01-28T06:30:15.390Z,51.37
2023-01-28T06:30:51.750Z,50.80
2023-01-28T06:31:23.439Z,51.97
2023-01-28T06:31:55.204Z,52.50
2023-01-28T06:32:27.193Z,52.00
2023-01-28T06:32:59.061Z,51.97
2023-01-28T06:33:30.722Z,51.20
2023-01-28T06:34:02.693Z,52.63
2023-01-28T06:34:34.321Z,51.17
2023-01-28T06:35:06.142Z,51.13
2023-01-28T06:35:37.795Z,49.93
2023-01-28T06:36:12.609Z,49.60
2023-01-28T06:36:44.773Z,49.00
2023-01-28T06:37:16.436Z,50.50
2023-01-28T06:37:50.667Z,49.50
2023-01-28T06:38:22.329Z,48.47
2023-01-28T06:38:54.003Z,50.07
2023-01-28T06:39:29.165Z,50.10
2023-01-28T06:40:00.823Z,50.57
2023-01-28T06:40:32.522Z,50.27
2023-01-28T06:41:04.297Z,50.93
2023-01-28T06:41:35.960Z,51.07
2023-01-28T06:42:12.560Z,47.93
2023-01-28T06:42:46.661Z,48.20
2023-01-28T06:43:18.401Z,50.20
2023-01-28T06:43:50.073Z,48.97
2023-01-28T06:44:23.527Z,51.00
2023-01-28T06:44:55.174Z,48.53
2023-01-28T06:45:26.781Z,49.60
2023-01-28T06:45:58.699Z,48.47
2023-01-28T06:46:32.673Z,48.53
2023-01-28T06:47:12.990Z,48.40
2023-01-28T06:47:44.640Z,49.33
2023-01-28T06:48:16.293Z,46.90
2023-01-28T06:48:50.807Z,48.57
2023-01-28T06:49:25.091Z,49.53
2023-01-28T06:49:56.743Z,48.23
2023-01-28T06:50:28.422Z,49.37
2023-01-28T06:51:00.095Z,50.97
2023-01-28T06:51:31.751Z,50.77
2023-01-28T06:52:04.669Z,50.67
2023-01-28T06:52:36.326Z,50.70
2023-01-28T06:53:07.991Z,49.37
2023-01-28T06:53:39.700Z,47.77
2023-01-28T06:54:11.339Z,47.00
2023-01-28T06:54:42.980Z,48.80
2023-01-28T06:55:16.836Z,48.53
2023-01-28T06:55:48.927Z,48.93
2023-01-28T06:56:20.619Z,50.03
2023-01-28T06:56:52.282Z,50.97
2023-01-28T06:57:23.931Z,51.93
2023-01-28T06:57:55.593Z,51.67
2023-01-28T06:58:27.328Z,50.00
2023-01-28T06:58:59.070Z,50.47
2023-01-28T06:59:30.716Z,49.07
2023-01-28T07:00:02.333Z,47.70
2023-01-28T07:00:35.608Z,48.10
2023-01-28T07:01:07.245Z,46.10
2023-01-28T07:01:41.173Z,46.77
2023-01-28T07:02:20.096Z,47.13
2023-01-28T07:02:56.033Z,46.37
2023-01-28T07:03:27.677Z,50.33
2023-01-28T07:03:59.444Z,49.73
2023-01-28T07:04:32.155Z,50.37
2023-01-28T07:05:06.824Z,50.90
2023-01-28T07:05:39.018Z,51.97
2023-01-28T07:06:14.508Z,50.03
2023-01-28T07:06:46.431Z,47.90
2023-01-28T07:07:18.117Z,47.63
2023-01-28T07:07:49.967Z,47.10
2023-01-28T07:08:21.658Z,48.63
2023-01-28T07:08:55.439Z,47.40
2023-01-28T07:09:27.138Z,47.13
2023-01-28T07:09:58.849Z,48.03
2023-01-28T07:10:30.630Z,46.57
2023-01-28T07:11:06.960Z,48.17
2023-01-28T07:11:38.630Z,50.60
2023-01-28T07:12:10.271Z,49.10
2023-01-28T07:12:41.940Z,48.90
2023-01-28T07:13:16.539Z,46.70
2023-01-28T07:13:48.264Z,50.00
2023-01-28T07:14:19.919Z,48.97
2023-01-28T07:14:51.656Z,49.60
2023-01-28T07:15:23.419Z,50.17
2023-01-28T07:15:55.106Z,50.63
2023-01-28T07:16:27.715Z,50.17
2023-01-28T07:16:59.460Z,49.23
2023-01-28T07:17:31.287Z,49.57
2023-01-28T07:18:03.173Z,48.03
2023-01-28T07:18:35.133Z,48.13
2023-01-28T07:19:06.775Z,47.20
2023-01-28T07:19:38.437Z,47.17
2023-01-28T07:20:13.175Z,48.57
2023-01-28T07:20:44.954Z,48.00
2023-01-28T07:21:16.831Z,47.60
2023-01-28T07:21:48.502Z,47.10
2023-01-28T07:22:20.155Z,46.50
2023-01-28T07:22:54.137Z,47.10
2023-01-28T07:23:27.679Z,47.57
2023-01-28T07:24:00.623Z,47.17
2023-01-28T07:24:35.368Z,47.33
2023-01-28T07:25:08.124Z,47.20
2023-01-28T07:25:42.359Z,49.30
2023-01-28T07:26:15.541Z,47.23
2023-01-28T07:26:51.000Z,47.17
2023-01-28T07:27:22.644Z,49.07
2023-01-28T07:27:56.881Z,46.93
2023-01-28T07:28:28.658Z,46.33
2023-01-28T07:29:00.398Z,47.03
2023-01-28T07:29:32.109Z,47.23
2023-01-28T07:30:04.654Z,49.27
2023-01-28T07:30:38.673Z,47.63
2023-01-28T07:31:10.460Z,47.17
2023-01-28T07:31:42.198Z,46.97
2023-01-28T07:32:13.879Z,47.47
2023-01-28T07:32:46.299Z,48.30
2023-01-28T07:33:19.945Z,47.00
2023-01-28T07:33:51.605Z,46.10
2023-01-28T07:34:25.726Z,45.50
2023-01-28T07:34:57.400Z,46.57
2023-01-28T07:35:29.920Z,47.23